Time;durP1;ratioP1;P1;durP2;ratioP2;P2;SDS_P1;SDS_P2;PMS_P1;PMS_P2;Temp;Humidity;BMP_temperature;BMP_pressure;BME280_temperature;BME280_humidity;BME280_pressure;Samples;Min_cycle;Max_cycle;Signal;HPM_P1;HPM_P2
2023/07/09 00:07:27;;;;;;;7.35;3.90;;;;;;;27.25;100.00;98854.22;30880355;28;20408;-76
2023/07/09 00:22:29;;;;;;;7.07;4.35;;;;;;;26.93;100.00;98824.25;30881860;28;20059;-76
2023/07/09 00:37:31;;;;;;;5.37;3.83;;;;;;;27.12;100.00;98858.75;30876531;28;20047;-74
2023/07/09 00:52:37;;;;;;;7.33;3.83;;;;;;;27.08;100.00;98863.97;30874490;28;20042;-76
2023/07/09 01:07:40;;;;;;;6.55;4.38;;;;;;;26.90;100.00;98889.41;30872582;28;20078;-74
2023/07/09 01:22:42;;;;;;;5.27;3.50;;;;;;;26.96;100.00;98912.25;30872216;28;20097;-75
2023/07/09 01:37:44;;;;;;;7.40;4.17;;;;;;;26.95;100.00;98921.91;30867348;28;20066;-76
2023/07/09 01:52:49;;;;;;;5.13;3.17;;;;;;;27.00;100.00;98940.47;30866191;28;20089;-74
2023/07/09 02:07:52;;;;;;;5.35;3.20;;;;;;;26.93;100.00;98961.41;30863497;28;20134;-76
2023/07/09 02:22:54;;;;;;;5.37;3.73;;;;;;;26.83;100.00;98975.16;30864391;28;20090;-77
2023/07/09 02:37:56;;;;;;;8.30;5.70;;;;;;;26.64;100.00;98966.47;30867103;28;20051;-77
2023/07/09 02:52:58;;;;;;;5.83;4.40;;;;;;;26.62;100.00;98979.44;30864142;28;20146;-76
2023/07/09 03:08:00;;;;;;;7.47;5.20;;;;;;;26.69;100.00;98985.00;30878652;28;20058;-76
2023/07/09 03:23:02;;;;;;;7.22;4.88;;;;;;;26.63;100.00;99001.16;30878062;28;20050;-75
2023/07/09 03:38:10;;;;;;;10.97;4.53;;;;;;;26.65;100.00;99012.47;30882921;28;20070;-75
2023/07/09 03:53:13;;;;;;;10.50;4.47;;;;;;;26.62;100.00;99013.59;30881801;28;20142;-76
2023/07/09 04:08:15;;;;;;;;;;;;;;;26.71;100.00;99032.50;30882096;28;20094;-76
2023/07/09 04:23:18;;;;;;;7.30;5.32;;;;;;;26.67;100.00;99004.31;30875923;28;19929;-76
2023/07/09 04:38:20;;;;;;;10.57;6.40;;;;;;;27.01;100.00;99036.63;30873089;28;20422;-77
2023/07/09 04:53:23;;;;;;;12.73;7.97;;;;;;;27.32;100.00;99032.53;30871272;28;20078;-75
2023/07/09 05:08:25;;;;;;;13.90;8.95;;;;;;;27.15;100.00;99004.50;30872154;28;20077;-76
2023/07/09 05:23:27;;;;;;;13.57;9.70;;;;;;;27.45;100.00;99015.56;30873015;28;20153;-76
2023/07/09 05:38:30;;;;;;;15.97;9.60;;;;;;;27.51;100.00;99009.81;30868913;28;20141;-76
2023/07/09 05:53:33;;;;;;;16.17;9.90;;;;;;;28.23;100.00;99044.72;30870595;28;20047;-76
2023/07/09 06:08:35;;;;;;;14.88;9.70;;;;;;;28.61;100.00;99053.59;30864424;28;20142;-77
2023/07/09 06:23:39;;;;;;;19.02;10.40;;;;;;;28.83;100.00;99077.84;30865038;28;20059;-76
2023/07/09 06:38:41;;;;;;;12.20;8.50;;;;;;;29.03;100.00;99108.81;30863550;28;20141;-77
2023/07/09 06:53:47;;;;;;;10.27;7.40;;;;;;;29.67;100.00;99135.13;30863030;28;20151;-77
2023/07/09 07:08:50;;;;;;;12.75;7.80;;;;;;;30.02;100.00;99147.06;30861269;28;20231;-77
2023/07/09 07:23:52;;;;;;;6.22;4.63;;;;;;;30.46;100.00;99178.66;30860044;28;20089;-76
2023/07/09 07:38:54;;;;;;;6.30;4.18;;;;;;;30.58;100.00;99178.91;30862510;28;20043;-75
2023/07/09 07:53:56;;;;;;;4.72;3.92;;;;;;;30.68;100.00;99193.72;30874733;28;20536;-77
2023/07/09 08:08:58;;;;;;;5.35;3.70;;;;;;;30.56;100.00;99220.75;30878700;28;20074;-76
2023/07/09 08:24:00;;;;;;;8.65;3.55;;;;;;;30.21;100.00;99224.88;30878279;28;20607;-78
2023/07/09 08:39:03;;;;;;;4.95;3.88;;;;;;;29.77;100.00;99228.22;30871333;28;20508;-76
2023/07/09 08:54:15;;;;;;;7.85;4.93;;;;;;;29.97;100.00;99235.53;30871166;28;20150;-75
2023/07/09 09:09:37;;;;;;;;;;;;;;;30.37;100.00;99254.19;30872371;28;20126;-76
2023/07/09 09:25:02;;;;;;;8.80;6.03;;;;;;;30.54;100.00;99262.56;30866114;28;20013;-78
2023/07/09 09:40:05;;;;;;;7.03;5.22;;;;;;;30.69;100.00;99284.84;30860503;28;20177;-78
2023/07/09 09:55:30;;;;;;;7.95;6.30;;;;;;;29.04;100.00;99182.94;30862585;28;20150;-76
2023/07/09 10:10:33;;;;;;;;;;;;;;;28.48;100.00;99129.22;30866946;28;20047;-77
2023/07/09 10:25:45;;;;;;;7.85;5.85;;;;;;;28.65;100.00;99126.53;30866346;28;19922;-77
2023/07/09 10:40:54;;;;;;;7.83;5.73;;;;;;;29.43;100.00;99134.59;30860903;28;20145;-78
2023/07/09 10:56:01;;;;;;;8.13;6.72;;;;;;;30.13;100.00;99155.72;30858297;28;20568;-76
2023/07/09 11:11:10;;;;;;;15.32;9.55;;;;;;;28.36;100.00;99167.22;30861061;28;20058;-77
2023/07/09 11:26:25;;;;;;;23.35;13.75;;;;;;;27.71;100.00;99094.50;30870503;28;20086;-74
2023/07/09 11:41:39;;;;;;;18.17;12.23;;;;;;;27.75;100.00;99112.34;30874832;28;20051;-73
2023/07/09 11:56:41;;;;;;;15.75;10.20;;;;;;;27.99;100.00;99146.50;30876111;28;20449;-74
2023/07/09 12:11:49;;;;;;;18.07;13.93;;;;;;;28.41;100.00;99202.56;30870998;28;20150;-77
2023/07/09 12:26:58;;;;;;;8.35;6.70;;;;;;;28.38;100.00;99214.84;30875067;28;20050;-76
2023/07/09 12:42:02;;;;;;;20.90;12.25;;;;;;;28.21;100.00;99237.06;30875020;28;20053;-76
2023/07/09 12:57:15;;;;;;;8.45;6.60;;;;;;;27.71;100.00;99267.38;30871648;28;20508;-76
2023/07/09 13:12:17;;;;;;;;;;;;;;;27.56;100.00;99303.56;30870163;28;20085;-76
2023/07/09 13:27:23;;;;;;;11.68;6.63;;;;;;;27.08;100.00;99269.84;30864911;28;20024;-75
2023/07/09 13:42:25;;;;;;;8.35;5.28;;;;;;;27.05;100.00;99304.38;30861863;28;20057;-75
2023/07/09 13:57:27;;;;;;;7.30;4.40;;;;;;;27.08;100.00;99337.44;30863813;28;20137;-76
2023/07/09 14:12:30;;;;;;;10.10;6.53;;;;;;;27.31;100.00;99382.09;30865317;28;20707;-75
2023/07/09 14:27:32;;;;;;;;;;;;;;;27.26;100.00;99413.66;30853810;28;20172;-75
2023/07/09 14:42:34;;;;;;;8.63;3.95;;;;;;;27.32;100.00;99435.78;30857891;28;19976;-76
2023/07/09 14:57:38;;;;;;;5.68;3.30;;;;;;;27.63;100.00;99433.91;30865859;28;20054;-75
2023/07/09 15:12:41;;;;;;;7.00;3.00;;;;;;;27.53;100.00;99464.31;30886302;28;20138;-75
2023/07/09 15:27:44;;;;;;;4.72;3.15;;;;;;;27.47;100.00;99483.97;30882805;28;20050;-81
2023/07/09 15:42:54;;;;;;;7.67;3.97;;;;;;;27.79;100.00;99499.56;30879067;28;20519;-75
2023/07/09 15:57:56;;;;;;;7.43;4.75;;;;;;;27.89;100.00;99520.03;30878546;28;20137;-75
2023/07/09 16:12:59;;;;;;;7.50;4.23;;;;;;;27.92;99.71;99544.03;30877965;28;20058;-76
2023/07/09 16:28:02;;;;;;;7.57;3.87;;;;;;;27.69;99.85;99566.25;30873010;28;20117;-74
2023/07/09 16:43:21;;;;;;;5.32;3.78;;;;;;;27.66;97.84;99566.59;30878890;28;20082;-78
2023/07/09 16:58:23;;;;;;;8.05;4.15;;;;;;;27.50;97.28;99572.06;30869971;28;20043;-77
2023/07/09 17:13:27;;;;;;;6.93;4.67;;;;;;;27.64;95.04;99585.91;30870819;28;20055;-76
2023/07/09 17:28:31;;;;;;;10.40;5.57;;;;;;;27.64;94.52;99585.91;30865527;28;20089;-75
2023/07/09 17:43:34;;;;;;;4.82;3.42;;;;;;;27.50;94.62;99586.00;30869208;28;20047;-76
2023/07/09 17:58:39;;;;;;;5.00;3.80;;;;;;;27.44;97.03;99607.69;30866631;28;20086;-76
2023/07/09 18:13:41;;;;;;;10.70;5.78;;;;;;;27.27;99.07;99604.63;30865591;28;20129;-75
2023/07/09 18:29:08;;;;;;;9.43;4.53;;;;;;;27.35;100.00;99597.06;30865695;28;20061;-77
2023/07/09 18:44:21;;;;;;;6.85;4.07;;;;;;;27.36;100.00;99581.84;30860211;28;20488;-77
2023/07/09 18:59:24;;;;;;;7.57;4.50;;;;;;;27.04;100.00;99581.41;30866437;28;20078;-79
2023/07/09 19:14:26;;;;;;;5.07;3.60;;;;;;;26.78;100.00;99571.88;30862620;28;20061;-78
2023/07/09 19:29:28;;;;;;;9.17;5.37;;;;;;;26.73;100.00;99564.41;30862339;28;20505;-75
2023/07/09 19:44:30;;;;;;;17.40;8.80;;;;;;;26.56;100.00;99549.41;30869398;28;20086;-75
2023/07/09 19:59:32;;;;;;;9.97;4.87;;;;;;;26.53;100.00;99556.78;30880889;28;20050;-77
2023/07/09 20:14:35;;;;;;;11.30;5.07;;;;;;;26.46;100.00;99563.03;30880442;28;20143;-77
2023/07/09 20:29:36;;;;;;;7.75;3.75;;;;;;;26.34;100.00;99545.84;30877676;28;20597;-76
2023/07/09 20:44:40;;;;;;;5.93;2.22;;;;;;;26.20;100.00;99563.13;30876163;28;20421;-75
2023/07/09 20:59:43;;;;;;;6.50;3.15;;;;;;;26.05;100.00;99569.97;30871917;28;20138;-75
2023/07/09 21:14:45;;;;;;;5.47;2.73;;;;;;;26.11;100.00;99564.31;30872942;28;20047;-75
2023/07/09 21:29:48;;;;;;;3.60;2.40;;;;;;;25.94;100.00;99570.22;30869998;28;20082;-75
2023/07/09 21:44:50;;;;;;;3.83;2.20;;;;;;;25.70;100.00;99556.56;30868396;28;20058;-77
2023/07/09 21:59:52;;;;;;;5.03;2.75;;;;;;;25.52;100.00;99560.16;30872255;28;20081;-75
2023/07/09 22:14:58;;;;;;;4.82;2.60;;;;;;;25.38;100.00;99565.00;30865205;28;20126;-74
2023/07/09 22:30:00;;;;;;;3.22;2.00;;;;;;;25.19;100.00;99581.75;30872561;28;20066;-76
2023/07/09 22:45:03;;;;;;;5.28;2.95;;;;;;;24.97;100.00;99571.03;30868988;28;20090;-76
2023/07/09 23:00:06;;;;;;;5.47;2.53;;;;;;;24.91;100.00;99573.84;30870813;28;20047;-75
2023/07/09 23:15:23;;;;;;;3.20;2.27;;;;;;;24.77;100.00;99580.66;30870069;28;20046;-76
2023/07/09 23:30:27;;;;;;;3.72;2.53;;;;;;;24.54;100.00;99569.16;30883631;28;20379;-76
2023/07/09 23:45:33;;;;;;;3.58;2.35;;;;;;;24.38;100.00;99567.38;30889905;28;20493;-76
